PWSweather.com
Personal Weather Stations
Station Observations
NAGEO265NE
Bedzin GrodziecPL 42-506

Bedzin GrodziecPL 42-506

Lat: 50.347, Lon: 19.079

Elevation: 948

Station Type: WH1080

http://www.meteo-grodziec.pl/

High Low Average
Temperature 28.4°F-2.0°C 24.1°F-4.4°C 25.9°F-3.4°C
Dew Point 27.3°F-2.6°C 21.4°F-5.9°C 23.9°F-4.5°C
Winds 5.0 mph 8.0 kmh Calm Calm 2.0 mph W3.2 kmh W
Wind Gusts 13.0 mph20.9 kmh 1.0 mph1.6 kmh 6.0 mph9.7 kmh
Humidity 96% 87% 92%
Pressure 30.41 in1029.8 mb 30.11 in1019.6 mb -
Precipitation 0.00 in0.0 mm - -
Hour Temp Dew Point Humidity Winds Wind Gusts Pressure Precip Precip Rate Daily Precip Total
12:00 AM 24.6°F-4.1°C 21.9°F-5.6°C 89% 4.0 mph NW6.4 kmh NW 12.0 mph19.3 kmh 30.35 in1027.8 mb 0.00 in0.0 mm 0.00 in0.0 mm 0.00 in0.0 mm
12:05 AM 24.6°F-4.1°C 21.7°F-5.7°C 89% 3.0 mph NW4.8 kmh NW 9.0 mph14.5 kmh 30.36 in1028.1 mb 0.00 in0.0 mm 0.00 in0.0 mm 0.00 in0.0 mm
12:10 AM 24.6°F-4.1°C 21.9°F-5.6°C 89% 3.0 mph NW4.8 kmh NW 9.0 mph14.5 kmh 30.36 in1028.1 mb 0.00 in0.0 mm 0.00 in0.0 mm 0.00 in0.0 mm
12:15 AM 24.6°F-4.1°C 21.9°F-5.6°C 89% 3.0 mph NW4.8 kmh NW 9.0 mph14.5 kmh 30.36 in1028.1 mb 0.00 in0.0 mm 0.00 in0.0 mm 0.00 in0.0 mm
12:20 AM 24.6°F-4.1°C 21.9°F-5.6°C 89% 3.0 mph NW4.8 kmh NW 10.0 mph16.1 kmh 30.36 in1028.1 mb 0.00 in0.0 mm 0.00 in0.0 mm 0.00 in0.0 mm
12:25 AM 24.6°F-4.1°C 21.9°F-5.6°C 89% 3.0 mph NW4.8 kmh NW 10.0 mph16.1 kmh 30.36 in1028.1 mb 0.00 in0.0 mm 0.00 in0.0 mm 0.00 in0.0 mm
12:30 AM 24.6°F-4.1°C 21.9°F-5.6°C 89% 2.0 mph NW3.2 kmh NW 11.0 mph17.7 kmh 30.36 in1028.1 mb 0.00 in0.0 mm 0.00 in0.0 mm 0.00 in0.0 mm
12:35 AM 24.6°F-4.1°C 21.9°F-5.6°C 89% 2.0 mph NW3.2 kmh NW 11.0 mph17.7 kmh 30.36 in1028.1 mb 0.00 in0.0 mm 0.00 in0.0 mm 0.00 in0.0 mm
12:40 AM 24.6°F-4.1°C 21.7°F-5.7°C 89% 4.0 mph NW6.4 kmh NW 9.0 mph14.5 kmh 30.36 in1028.1 mb 0.00 in0.0 mm 0.00 in0.0 mm 0.00 in0.0 mm
12:45 AM 24.4°F-4.2°C 21.7°F-5.7°C 89% 3.0 mph NW4.8 kmh NW 9.0 mph14.5 kmh 30.37 in1028.4 mb 0.00 in0.0 mm 0.00 in0.0 mm 0.00 in0.0 mm
12:50 AM 24.4°F-4.2°C 21.6°F-5.8°C 89% 2.0 mph NW3.2 kmh NW 10.0 mph16.1 kmh 30.37 in1028.4 mb 0.00 in0.0 mm 0.00 in0.0 mm 0.00 in0.0 mm
12:55 AM 24.4°F-4.2°C 21.6°F-5.8°C 89% 3.0 mph NW4.8 kmh NW 10.0 mph16.1 kmh 30.37 in1028.4 mb 0.00 in0.0 mm 0.00 in0.0 mm 0.00 in0.0 mm
01:00 AM 24.4°F-4.2°C 21.6°F-5.8°C 89% 2.0 mph NW3.2 kmh NW 6.0 mph9.7 kmh 30.37 in1028.4 mb 0.00 in0.0 mm 0.00 in0.0 mm 0.00 in0.0 mm
01:05 AM 24.4°F-4.2°C 21.9°F-5.6°C 90% 2.0 mph NW3.2 kmh NW 6.0 mph9.7 kmh 30.37 in1028.4 mb 0.00 in0.0 mm 0.00 in0.0 mm 0.00 in0.0 mm
01:10 AM 24.4°F-4.2°C 21.9°F-5.6°C 90% 2.0 mph NW3.2 kmh NW 6.0 mph9.7 kmh 30.37 in1028.4 mb 0.00 in0.0 mm 0.00 in0.0 mm 0.00 in0.0 mm
01:15 AM 24.6°F-4.1°C 22.1°F-5.5°C 90% 3.0 mph NW4.8 kmh NW 10.0 mph16.1 kmh 30.37 in1028.4 mb 0.00 in0.0 mm 0.00 in0.0 mm 0.00 in0.0 mm
01:20 AM 24.6°F-4.1°C 21.9°F-5.6°C 89% 3.0 mph NW4.8 kmh NW 10.0 mph16.1 kmh 30.37 in1028.4 mb 0.00 in0.0 mm 0.00 in0.0 mm 0.00 in0.0 mm
01:25 AM 24.8°F-4.0°C 22.1°F-5.5°C 89% 2.0 mph NW3.2 kmh NW 7.0 mph11.3 kmh 30.37 in1028.4 mb 0.00 in0.0 mm 0.00 in0.0 mm 0.00 in0.0 mm
01:30 AM 24.8°F-4.0°C 22.1°F-5.5°C 89% 2.0 mph NW3.2 kmh NW 7.0 mph11.3 kmh 30.37 in1028.4 mb 0.00 in0.0 mm 0.00 in0.0 mm 0.00 in0.0 mm
01:35 AM 24.8°F-4.0°C 22.1°F-5.5°C 89% 2.0 mph NW3.2 kmh NW 7.0 mph11.3 kmh 30.38 in1028.8 mb 0.00 in0.0 mm 0.00 in0.0 mm 0.00 in0.0 mm
01:40 AM 24.8°F-4.0°C 22.1°F-5.5°C 89% 3.0 mph NW4.8 kmh NW 7.0 mph11.3 kmh 30.38 in1028.8 mb 0.00 in0.0 mm 0.00 in0.0 mm 0.00 in0.0 mm
01:45 AM 24.6°F-4.1°C 21.9°F-5.6°C 89% 3.0 mph NW4.8 kmh NW 8.0 mph12.9 kmh 30.38 in1028.8 mb 0.00 in0.0 mm 0.00 in0.0 mm 0.00 in0.0 mm
01:50 AM 24.6°F-4.1°C 21.9°F-5.6°C 89% 3.0 mph NW4.8 kmh NW 9.0 mph14.5 kmh 30.38 in1028.8 mb 0.00 in0.0 mm 0.00 in0.0 mm 0.00 in0.0 mm
01:55 AM 24.4°F-4.2°C 21.4°F-5.9°C 88% 3.0 mph NW4.8 kmh NW 9.0 mph14.5 kmh 30.38 in1028.8 mb 0.00 in0.0 mm 0.00 in0.0 mm 0.00 in0.0 mm
02:00 AM 24.4°F-4.2°C 21.6°F-5.8°C 89% 2.0 mph NW3.2 kmh NW 6.0 mph9.7 kmh 30.38 in1028.8 mb 0.00 in0.0 mm 0.00 in0.0 mm 0.00 in0.0 mm
02:05 AM 24.4°F-4.2°C 21.7°F-5.7°C 89% 2.0 mph NW3.2 kmh NW 7.0 mph11.3 kmh 30.38 in1028.8 mb 0.00 in0.0 mm 0.00 in0.0 mm 0.00 in0.0 mm
02:10 AM 24.6°F-4.1°C 21.7°F-5.7°C 89% 3.0 mph NW4.8 kmh NW 7.0 mph11.3 kmh 30.38 in1028.8 mb 0.00 in0.0 mm 0.00 in0.0 mm 0.00 in0.0 mm
02:15 AM 24.6°F-4.1°C 21.7°F-5.7°C 89% 2.0 mph NW3.2 kmh NW 7.0 mph11.3 kmh 30.38 in1028.8 mb 0.00 in0.0 mm 0.00 in0.0 mm 0.00 in0.0 mm
02:20 AM 24.6°F-4.1°C 21.9°F-5.6°C 89% 2.0 mph NW3.2 kmh NW 9.0 mph14.5 kmh 30.38 in1028.8 mb 0.00 in0.0 mm 0.00 in0.0 mm 0.00 in0.0 mm
02:25 AM 24.6°F-4.1°C 22.1°F-5.5°C 90% 3.0 mph NW4.8 kmh NW 9.0 mph14.5 kmh 30.39 in1029.1 mb 0.00 in0.0 mm 0.00 in0.0 mm 0.00 in0.0 mm
02:30 AM 24.8°F-4.0°C 22.3°F-5.4°C 90% 3.0 mph NW4.8 kmh NW 8.0 mph12.9 kmh 30.38 in1028.8 mb 0.00 in0.0 mm 0.00 in0.0 mm 0.00 in0.0 mm
02:35 AM 24.8°F-4.0°C 22.3°F-5.4°C 90% 4.0 mph NW6.4 kmh NW 9.0 mph14.5 kmh 30.38 in1028.8 mb 0.00 in0.0 mm 0.00 in0.0 mm 0.00 in0.0 mm
02:40 AM 24.8°F-4.0°C 22.3°F-5.4°C 90% 4.0 mph NW6.4 kmh NW 9.0 mph14.5 kmh 30.38 in1028.8 mb 0.00 in0.0 mm 0.00 in0.0 mm 0.00 in0.0 mm
02:45 AM 24.6°F-4.1°C 21.9°F-5.6°C 89% 3.0 mph NW4.8 kmh NW 8.0 mph12.9 kmh 30.38 in1028.8 mb 0.00 in0.0 mm 0.00 in0.0 mm 0.00 in0.0 mm
02:50 AM 24.6°F-4.1°C 21.7°F-5.7°C 89% 4.0 mph NW6.4 kmh NW 8.0 mph12.9 kmh 30.38 in1028.8 mb 0.00 in0.0 mm 0.00 in0.0 mm 0.00 in0.0 mm
02:55 AM 24.4°F-4.2°C 21.6°F-5.8°C 89% 4.0 mph NW6.4 kmh NW 9.0 mph14.5 kmh 30.38 in1028.8 mb 0.00 in0.0 mm 0.00 in0.0 mm 0.00 in0.0 mm
03:00 AM 24.4°F-4.2°C 21.6°F-5.8°C 89% 4.0 mph NW6.4 kmh NW 9.0 mph14.5 kmh 30.38 in1028.8 mb 0.00 in0.0 mm 0.00 in0.0 mm 0.00 in0.0 mm
03:05 AM 24.4°F-4.2°C 21.9°F-5.6°C 90% 3.0 mph NW4.8 kmh NW 9.0 mph14.5 kmh 30.38 in1028.8 mb 0.00 in0.0 mm 0.00 in0.0 mm 0.00 in0.0 mm
03:10 AM 24.4°F-4.2°C 21.9°F-5.6°C 90% 3.0 mph NW4.8 kmh NW 9.0 mph14.5 kmh 30.38 in1028.8 mb 0.00 in0.0 mm 0.00 in0.0 mm 0.00 in0.0 mm
03:15 AM 24.6°F-4.1°C 22.1°F-5.5°C 90% 3.0 mph NW4.8 kmh NW 8.0 mph12.9 kmh 30.38 in1028.8 mb 0.00 in0.0 mm 0.00 in0.0 mm 0.00 in0.0 mm
03:20 AM 24.6°F-4.1°C 22.1°F-5.5°C 90% 2.0 mph NW3.2 kmh NW 8.0 mph12.9 kmh 30.39 in1029.1 mb 0.00 in0.0 mm 0.00 in0.0 mm 0.00 in0.0 mm
03:25 AM 24.6°F-4.1°C 22.1°F-5.5°C 90% 2.0 mph NW3.2 kmh NW 8.0 mph12.9 kmh 30.38 in1028.8 mb 0.00 in0.0 mm 0.00 in0.0 mm 0.00 in0.0 mm
03:30 AM 24.6°F-4.1°C 22.1°F-5.5°C 90% 2.0 mph NW3.2 kmh NW 8.0 mph12.9 kmh 30.38 in1028.8 mb 0.00 in0.0 mm 0.00 in0.0 mm 0.00 in0.0 mm
03:35 AM 24.6°F-4.1°C 22.1°F-5.5°C 90% 2.0 mph NW3.2 kmh NW 7.0 mph11.3 kmh 30.38 in1028.8 mb 0.00 in0.0 mm 0.00 in0.0 mm 0.00 in0.0 mm
03:40 AM 24.6°F-4.1°C 22.1°F-5.5°C 90% 2.0 mph NW3.2 kmh NW 6.0 mph9.7 kmh 30.38 in1028.8 mb 0.00 in0.0 mm 0.00 in0.0 mm 0.00 in0.0 mm
03:45 AM 24.6°F-4.1°C 22.1°F-5.5°C 90% 2.0 mph NW3.2 kmh NW 4.0 mph6.4 kmh 30.38 in1028.8 mb 0.00 in0.0 mm 0.00 in0.0 mm 0.00 in0.0 mm
03:50 AM 24.6°F-4.1°C 22.1°F-5.5°C 90% 2.0 mph NW3.2 kmh NW 7.0 mph11.3 kmh 30.38 in1028.8 mb 0.00 in0.0 mm 0.00 in0.0 mm 0.00 in0.0 mm
03:55 AM 24.6°F-4.1°C 22.1°F-5.5°C 90% 3.0 mph NW4.8 kmh NW 8.0 mph12.9 kmh 30.38 in1028.8 mb 0.00 in0.0 mm 0.00 in0.0 mm 0.00 in0.0 mm
04:00 AM 24.6°F-4.1°C 22.1°F-5.5°C 90% 3.0 mph NW4.8 kmh NW 8.0 mph12.9 kmh 30.38 in1028.8 mb 0.00 in0.0 mm 0.00 in0.0 mm 0.00 in0.0 mm
04:05 AM 24.6°F-4.1°C 22.1°F-5.5°C 90% 3.0 mph NW4.8 kmh NW 7.0 mph11.3 kmh 30.38 in1028.8 mb 0.00 in0.0 mm 0.00 in0.0 mm 0.00 in0.0 mm
04:10 AM 24.8°F-4.0°C 22.3°F-5.4°C 90% 4.0 mph NW6.4 kmh NW 10.0 mph16.1 kmh 30.38 in1028.8 mb 0.00 in0.0 mm 0.00 in0.0 mm 0.00 in0.0 mm
04:15 AM 24.8°F-4.0°C 22.3°F-5.4°C 90% 3.0 mph NW4.8 kmh NW 10.0 mph16.1 kmh 30.38 in1028.8 mb 0.00 in0.0 mm 0.00 in0.0 mm 0.00 in0.0 mm
04:20 AM 24.8°F-4.0°C 22.3°F-5.4°C 90% 3.0 mph NW4.8 kmh NW 11.0 mph17.7 kmh 30.38 in1028.8 mb 0.00 in0.0 mm 0.00 in0.0 mm 0.00 in0.0 mm
04:25 AM 24.8°F-4.0°C 22.3°F-5.4°C 90% 3.0 mph NW4.8 kmh NW 11.0 mph17.7 kmh 30.38 in1028.8 mb 0.00 in0.0 mm 0.00 in0.0 mm 0.00 in0.0 mm
04:30 AM 24.8°F-4.0°C 22.5°F-5.3°C 91% 3.0 mph NW4.8 kmh NW 9.0 mph14.5 kmh 30.38 in1028.8 mb 0.00 in0.0 mm 0.00 in0.0 mm 0.00 in0.0 mm
04:35 AM 24.8°F-4.0°C 22.3°F-5.4°C 90% 4.0 mph NW6.4 kmh NW 9.0 mph14.5 kmh 30.38 in1028.8 mb 0.00 in0.0 mm 0.00 in0.0 mm 0.00 in0.0 mm
04:40 AM 24.8°F-4.0°C 22.3°F-5.4°C 90% 4.0 mph NW6.4 kmh NW 9.0 mph14.5 kmh 30.38 in1028.8 mb 0.00 in0.0 mm 0.00 in0.0 mm 0.00 in0.0 mm
04:45 AM 24.8°F-4.0°C 22.5°F-5.3°C 91% 4.0 mph NW6.4 kmh NW 9.0 mph14.5 kmh 30.38 in1028.8 mb 0.00 in0.0 mm 0.00 in0.0 mm 0.00 in0.0 mm
04:50 AM 25.0°F-3.9°C 22.6°F-5.2°C 91% 4.0 mph NW6.4 kmh NW 9.0 mph14.5 kmh 30.38 in1028.8 mb 0.00 in0.0 mm 0.00 in0.0 mm 0.00 in0.0 mm
04:55 AM 25.0°F-3.9°C 22.6°F-5.2°C 91% 4.0 mph NW6.4 kmh NW 9.0 mph14.5 kmh 30.38 in1028.8 mb 0.00 in0.0 mm 0.00 in0.0 mm 0.00 in0.0 mm
05:00 AM 25.0°F-3.9°C 22.6°F-5.2°C 91% 4.0 mph NW6.4 kmh NW 10.0 mph16.1 kmh 30.38 in1028.8 mb 0.00 in0.0 mm 0.00 in0.0 mm 0.00 in0.0 mm
05:05 AM 25.0°F-3.9°C 22.6°F-5.2°C 91% 3.0 mph NW4.8 kmh NW 10.0 mph16.1 kmh 30.38 in1028.8 mb 0.00 in0.0 mm 0.00 in0.0 mm 0.00 in0.0 mm
05:10 AM 25.0°F-3.9°C 22.6°F-5.2°C 91% 2.0 mph NW3.2 kmh NW 8.0 mph12.9 kmh 30.38 in1028.8 mb 0.00 in0.0 mm 0.00 in0.0 mm 0.00 in0.0 mm
05:15 AM 25.0°F-3.9°C 22.6°F-5.2°C 91% 2.0 mph NW3.2 kmh NW 7.0 mph11.3 kmh 30.38 in1028.8 mb 0.00 in0.0 mm 0.00 in0.0 mm 0.00 in0.0 mm
05:20 AM 25.0°F-3.9°C 22.6°F-5.2°C 91% 3.0 mph NW4.8 kmh NW 7.0 mph11.3 kmh 30.38 in1028.8 mb 0.00 in0.0 mm 0.00 in0.0 mm 0.00 in0.0 mm
05:25 AM 24.8°F-4.0°C 22.5°F-5.3°C 91% 2.0 mph NW3.2 kmh NW 7.0 mph11.3 kmh 30.39 in1029.1 mb 0.00 in0.0 mm 0.00 in0.0 mm 0.00 in0.0 mm
05:30 AM 24.8°F-4.0°C 22.5°F-5.3°C 91% 1.0 mph NW1.6 kmh NW 6.0 mph9.7 kmh 30.39 in1029.1 mb 0.00 in0.0 mm 0.00 in0.0 mm 0.00 in0.0 mm
05:35 AM 24.8°F-4.0°C 22.5°F-5.3°C 91% 1.0 mph NW1.6 kmh NW 5.0 mph8.0 kmh 30.38 in1028.8 mb 0.00 in0.0 mm 0.00 in0.0 mm 0.00 in0.0 mm
05:40 AM 24.8°F-4.0°C 22.5°F-5.3°C 91% 1.0 mph NW1.6 kmh NW 5.0 mph8.0 kmh 30.38 in1028.8 mb 0.00 in0.0 mm 0.00 in0.0 mm 0.00 in0.0 mm
05:45 AM 25.0°F-3.9°C 22.6°F-5.2°C 91% 2.0 mph NW3.2 kmh NW 5.0 mph8.0 kmh 30.38 in1028.8 mb 0.00 in0.0 mm 0.00 in0.0 mm 0.00 in0.0 mm
05:50 AM 24.8°F-4.0°C 22.5°F-5.3°C 91% 1.0 mph NW1.6 kmh NW 5.0 mph8.0 kmh 30.38 in1028.8 mb 0.00 in0.0 mm 0.00 in0.0 mm 0.00 in0.0 mm
05:55 AM 24.8°F-4.0°C 22.5°F-5.3°C 91% 1.0 mph NW1.6 kmh NW 4.0 mph6.4 kmh 30.38 in1028.8 mb 0.00 in0.0 mm 0.00 in0.0 mm 0.00 in0.0 mm
06:00 AM 25.0°F-3.9°C 22.6°F-5.2°C 91% Calm Calm 4.0 mph6.4 kmh 30.38 in1028.8 mb 0.00 in0.0 mm 0.00 in0.0 mm 0.00 in0.0 mm
06:05 AM 25.0°F-3.9°C 22.8°F-5.1°C 91% Calm Calm 1.0 mph1.6 kmh 30.38 in1028.8 mb 0.00 in0.0 mm 0.00 in0.0 mm 0.00 in0.0 mm
06:10 AM 25.0°F-3.9°C 23.0°F-5.0°C 92% Calm Calm 1.0 mph1.6 kmh 30.38 in1028.8 mb 0.00 in0.0 mm 0.00 in0.0 mm 0.00 in0.0 mm
06:15 AM 25.0°F-3.9°C 23.0°F-5.0°C 92% Calm Calm 2.0 mph3.2 kmh 30.38 in1028.8 mb 0.00 in0.0 mm 0.00 in0.0 mm 0.00 in0.0 mm
06:20 AM 25.2°F-3.8°C 23.2°F-4.9°C 92% Calm Calm 2.0 mph3.2 kmh 30.39 in1029.1 mb 0.00 in0.0 mm 0.00 in0.0 mm 0.00 in0.0 mm
06:25 AM 25.2°F-3.8°C 23.2°F-4.9°C 92% Calm Calm 2.0 mph3.2 kmh 30.38 in1028.8 mb 0.00 in0.0 mm 0.00 in0.0 mm 0.00 in0.0 mm
06:30 AM 25.0°F-3.9°C 23.0°F-5.0°C 92% Calm Calm 2.0 mph3.2 kmh 30.38 in1028.8 mb 0.00 in0.0 mm 0.00 in0.0 mm 0.00 in0.0 mm
06:35 AM 25.0°F-3.9°C 23.0°F-5.0°C 92% Calm Calm 2.0 mph3.2 kmh 30.38 in1028.8 mb 0.00 in0.0 mm 0.00 in0.0 mm 0.00 in0.0 mm
06:40 AM 25.0°F-3.9°C 22.8°F-5.1°C 92% Calm Calm 2.0 mph3.2 kmh 30.39 in1029.1 mb 0.00 in0.0 mm 0.00 in0.0 mm 0.00 in0.0 mm
06:45 AM 24.8°F-4.0°C 22.8°F-5.1°C 92% Calm Calm 2.0 mph3.2 kmh 30.39 in1029.1 mb 0.00 in0.0 mm 0.00 in0.0 mm 0.00 in0.0 mm
06:50 AM 24.8°F-4.0°C 22.8°F-5.1°C 92% Calm Calm 1.0 mph1.6 kmh 30.39 in1029.1 mb 0.00 in0.0 mm 0.00 in0.0 mm 0.00 in0.0 mm
06:55 AM 24.8°F-4.0°C 22.8°F-5.1°C 92% Calm Calm 2.0 mph3.2 kmh 30.39 in1029.1 mb 0.00 in0.0 mm 0.00 in0.0 mm 0.00 in0.0 mm
07:00 AM 24.6°F-4.1°C 22.6°F-5.2°C 92% Calm Calm 2.0 mph3.2 kmh 30.39 in1029.1 mb 0.00 in0.0 mm 0.00 in0.0 mm 0.00 in0.0 mm
07:05 AM 24.6°F-4.1°C 22.6°F-5.2°C 92% Calm Calm 2.0 mph3.2 kmh 30.39 in1029.1 mb 0.00 in0.0 mm 0.00 in0.0 mm 0.00 in0.0 mm
07:10 AM 24.6°F-4.1°C 22.6°F-5.2°C 92% Calm Calm 2.0 mph3.2 kmh 30.39 in1029.1 mb 0.00 in0.0 mm 0.00 in0.0 mm 0.00 in0.0 mm
07:15 AM 24.6°F-4.1°C 22.6°F-5.2°C 92% Calm Calm 2.0 mph3.2 kmh 30.39 in1029.1 mb 0.00 in0.0 mm 0.00 in0.0 mm 0.00 in0.0 mm
07:20 AM 24.6°F-4.1°C 22.6°F-5.2°C 92% Calm Calm 2.0 mph3.2 kmh 30.39 in1029.1 mb 0.00 in0.0 mm 0.00 in0.0 mm 0.00 in0.0 mm
07:25 AM 24.4°F-4.2°C 22.5°F-5.3°C 92% Calm Calm 2.0 mph3.2 kmh 30.39 in1029.1 mb 0.00 in0.0 mm 0.00 in0.0 mm 0.00 in0.0 mm
07:30 AM 24.4°F-4.2°C 22.5°F-5.3°C 92% Calm Calm 2.0 mph3.2 kmh 30.39 in1029.1 mb 0.00 in0.0 mm 0.00 in0.0 mm 0.00 in0.0 mm
07:35 AM 24.4°F-4.2°C 22.5°F-5.3°C 92% Calm Calm 4.0 mph6.4 kmh 30.39 in1029.1 mb 0.00 in0.0 mm 0.00 in0.0 mm 0.00 in0.0 mm
07:40 AM 24.4°F-4.2°C 22.5°F-5.3°C 92% Calm Calm 4.0 mph6.4 kmh 30.40 in1029.5 mb 0.00 in0.0 mm 0.00 in0.0 mm 0.00 in0.0 mm
07:45 AM 24.4°F-4.2°C 22.5°F-5.3°C 92% Calm Calm 4.0 mph6.4 kmh 30.40 in1029.5 mb 0.00 in0.0 mm 0.00 in0.0 mm 0.00 in0.0 mm
07:50 AM 24.3°F-4.3°C 22.3°F-5.4°C 92% Calm Calm 1.0 mph1.6 kmh 30.40 in1029.5 mb 0.00 in0.0 mm 0.00 in0.0 mm 0.00 in0.0 mm
07:55 AM 24.3°F-4.3°C 22.3°F-5.4°C 92% Calm Calm 1.0 mph1.6 kmh 30.40 in1029.5 mb 0.00 in0.0 mm 0.00 in0.0 mm 0.00 in0.0 mm
08:00 AM 24.1°F-4.4°C 22.1°F-5.5°C 92% Calm Calm 1.0 mph1.6 kmh 30.40 in1029.5 mb 0.00 in0.0 mm 0.00 in0.0 mm 0.00 in0.0 mm
08:05 AM 24.1°F-4.4°C 22.1°F-5.5°C 92% Calm Calm 1.0 mph1.6 kmh 30.40 in1029.5 mb 0.00 in0.0 mm 0.00 in0.0 mm 0.00 in0.0 mm
08:10 AM 24.1°F-4.4°C 22.1°F-5.5°C 92% Calm Calm 1.0 mph1.6 kmh 30.41 in1029.8 mb 0.00 in0.0 mm 0.00 in0.0 mm 0.00 in0.0 mm
08:15 AM 24.3°F-4.3°C 22.3°F-5.4°C 92% Calm Calm 1.0 mph1.6 kmh 30.41 in1029.8 mb 0.00 in0.0 mm 0.00 in0.0 mm 0.00 in0.0 mm
08:20 AM 24.3°F-4.3°C 22.6°F-5.2°C 93% Calm Calm 1.0 mph1.6 kmh 30.41 in1029.8 mb 0.00 in0.0 mm 0.00 in0.0 mm 0.00 in0.0 mm
08:25 AM 24.3°F-4.3°C 22.6°F-5.2°C 93% Calm Calm 1.0 mph1.6 kmh 30.41 in1029.8 mb 0.00 in0.0 mm 0.00 in0.0 mm 0.00 in0.0 mm
08:30 AM 24.3°F-4.3°C 22.6°F-5.2°C 93% Calm Calm 1.0 mph1.6 kmh 30.41 in1029.8 mb 0.00 in0.0 mm 0.00 in0.0 mm 0.00 in0.0 mm
08:35 AM 24.4°F-4.2°C 22.6°F-5.2°C 93% Calm Calm 1.0 mph1.6 kmh 30.41 in1029.8 mb 0.00 in0.0 mm 0.00 in0.0 mm 0.00 in0.0 mm
08:40 AM 24.6°F-4.1°C 22.8°F-5.1°C 93% Calm Calm 2.0 mph3.2 kmh 30.41 in1029.8 mb 0.00 in0.0 mm 0.00 in0.0 mm 0.00 in0.0 mm
08:45 AM 24.8°F-4.0°C 23.0°F-5.0°C 93% Calm Calm 2.0 mph3.2 kmh 30.41 in1029.8 mb 0.00 in0.0 mm 0.00 in0.0 mm 0.00 in0.0 mm
08:50 AM 25.0°F-3.9°C 23.2°F-4.9°C 93% Calm Calm 2.0 mph3.2 kmh 30.41 in1029.8 mb 0.00 in0.0 mm 0.00 in0.0 mm 0.00 in0.0 mm
08:55 AM 25.2°F-3.8°C 23.5°F-4.7°C 93% Calm Calm 2.0 mph3.2 kmh 30.41 in1029.8 mb 0.00 in0.0 mm 0.00 in0.0 mm 0.00 in0.0 mm
09:00 AM 25.3°F-3.7°C 23.7°F-4.6°C 93% Calm Calm 4.0 mph6.4 kmh 30.41 in1029.8 mb 0.00 in0.0 mm 0.00 in0.0 mm 0.00 in0.0 mm
09:05 AM 25.5°F-3.6°C 23.7°F-4.6°C 93% Calm Calm 4.0 mph6.4 kmh 30.41 in1029.8 mb 0.00 in0.0 mm 0.00 in0.0 mm 0.00 in0.0 mm
09:10 AM 25.7°F-3.5°C 23.9°F-4.5°C 93% Calm Calm 4.0 mph6.4 kmh 30.41 in1029.8 mb 0.00 in0.0 mm 0.00 in0.0 mm 0.00 in0.0 mm
09:15 AM 25.9°F-3.4°C 23.9°F-4.5°C 92% Calm Calm 3.0 mph4.8 kmh 30.41 in1029.8 mb 0.00 in0.0 mm 0.00 in0.0 mm 0.00 in0.0 mm
09:20 AM 25.9°F-3.4°C 23.9°F-4.5°C 92% 1.0 mph NW1.6 kmh NW 4.0 mph6.4 kmh 30.40 in1029.5 mb 0.00 in0.0 mm 0.00 in0.0 mm 0.00 in0.0 mm
09:25 AM 26.1°F-3.3°C 24.1°F-4.4°C 92% 1.0 mph NW1.6 kmh NW 4.0 mph6.4 kmh 30.40 in1029.5 mb 0.00 in0.0 mm 0.00 in0.0 mm 0.00 in0.0 mm
09:30 AM 26.1°F-3.3°C 24.1°F-4.4°C 92% 1.0 mph NW1.6 kmh NW 4.0 mph6.4 kmh 30.40 in1029.5 mb 0.00 in0.0 mm 0.00 in0.0 mm 0.00 in0.0 mm
09:35 AM 26.2°F-3.2°C 24.3°F-4.3°C 92% 1.0 mph WNW1.6 kmh WNW 4.0 mph6.4 kmh 30.40 in1029.5 mb 0.00 in0.0 mm 0.00 in0.0 mm 0.00 in0.0 mm
09:40 AM 26.2°F-3.2°C 23.9°F-4.5°C 91% 1.0 mph WNW1.6 kmh WNW 4.0 mph6.4 kmh 30.40 in1029.5 mb 0.00 in0.0 mm 0.00 in0.0 mm 0.00 in0.0 mm
09:45 AM 26.2°F-3.2°C 23.9°F-4.5°C 91% 1.0 mph NW1.6 kmh NW 4.0 mph6.4 kmh 30.40 in1029.5 mb 0.00 in0.0 mm 0.00 in0.0 mm 0.00 in0.0 mm
09:50 AM 26.2°F-3.2°C 23.9°F-4.5°C 91% 1.0 mph NW1.6 kmh NW 4.0 mph6.4 kmh 30.40 in1029.5 mb 0.00 in0.0 mm 0.00 in0.0 mm 0.00 in0.0 mm
09:55 AM 26.1°F-3.3°C 23.9°F-4.5°C 91% 1.0 mph NW1.6 kmh NW 8.0 mph12.9 kmh 30.40 in1029.5 mb 0.00 in0.0 mm 0.00 in0.0 mm 0.00 in0.0 mm
10:00 AM 26.1°F-3.3°C 23.9°F-4.5°C 91% 1.0 mph WNW1.6 kmh WNW 8.0 mph12.9 kmh 30.40 in1029.5 mb 0.00 in0.0 mm 0.00 in0.0 mm 0.00 in0.0 mm
10:05 AM 26.1°F-3.3°C 23.9°F-4.5°C 91% 1.0 mph W1.6 kmh W 4.0 mph6.4 kmh 30.39 in1029.1 mb 0.00 in0.0 mm 0.00 in0.0 mm 0.00 in0.0 mm
10:10 AM 26.1°F-3.3°C 23.9°F-4.5°C 91% 1.0 mph WSW1.6 kmh WSW 3.0 mph4.8 kmh 30.39 in1029.1 mb 0.00 in0.0 mm 0.00 in0.0 mm 0.00 in0.0 mm
10:15 AM 26.1°F-3.3°C 23.9°F-4.5°C 91% 1.0 mph WSW1.6 kmh WSW 4.0 mph6.4 kmh 30.39 in1029.1 mb 0.00 in0.0 mm 0.00 in0.0 mm 0.00 in0.0 mm
10:20 AM 26.1°F-3.3°C 23.9°F-4.5°C 91% 1.0 mph WNW1.6 kmh WNW 5.0 mph8.0 kmh 30.39 in1029.1 mb 0.00 in0.0 mm 0.00 in0.0 mm 0.00 in0.0 mm
10:25 AM 26.2°F-3.2°C 23.9°F-4.5°C 91% 1.0 mph WNW1.6 kmh WNW 5.0 mph8.0 kmh 30.39 in1029.1 mb 0.00 in0.0 mm 0.00 in0.0 mm 0.00 in0.0 mm
10:30 AM 26.4°F-3.1°C 24.1°F-4.4°C 91% Calm Calm 5.0 mph8.0 kmh 30.39 in1029.1 mb 0.00 in0.0 mm 0.00 in0.0 mm 0.00 in0.0 mm
10:35 AM 26.4°F-3.1°C 24.1°F-4.4°C 91% Calm Calm 4.0 mph6.4 kmh 30.38 in1028.8 mb 0.00 in0.0 mm 0.00 in0.0 mm 0.00 in0.0 mm
10:40 AM 26.4°F-3.1°C 24.1°F-4.4°C 91% 1.0 mph WSW1.6 kmh WSW 4.0 mph6.4 kmh 30.38 in1028.8 mb 0.00 in0.0 mm 0.00 in0.0 mm 0.00 in0.0 mm
10:45 AM 26.4°F-3.1°C 24.3°F-4.3°C 91% 1.0 mph W1.6 kmh W 4.0 mph6.4 kmh 30.38 in1028.8 mb 0.00 in0.0 mm 0.00 in0.0 mm 0.00 in0.0 mm
10:50 AM 26.6°F-3.0°C 24.1°F-4.4°C 90% Calm Calm 4.0 mph6.4 kmh 30.38 in1028.8 mb 0.00 in0.0 mm 0.00 in0.0 mm 0.00 in0.0 mm
10:55 AM 26.4°F-3.1°C 23.9°F-4.5°C 90% 1.0 mph WSW1.6 kmh WSW 8.0 mph12.9 kmh 30.38 in1028.8 mb 0.00 in0.0 mm 0.00 in0.0 mm 0.00 in0.0 mm
11:00 AM 26.4°F-3.1°C 23.9°F-4.5°C 90% 1.0 mph WSW1.6 kmh WSW 8.0 mph12.9 kmh 30.38 in1028.8 mb 0.00 in0.0 mm 0.00 in0.0 mm 0.00 in0.0 mm
11:05 AM 26.6°F-3.0°C 24.1°F-4.4°C 90% 1.0 mph W1.6 kmh W 4.0 mph6.4 kmh 30.38 in1028.8 mb 0.00 in0.0 mm 0.00 in0.0 mm 0.00 in0.0 mm
11:10 AM 26.8°F-2.9°C 24.1°F-4.4°C 90% 1.0 mph W1.6 kmh W 4.0 mph6.4 kmh 30.37 in1028.4 mb 0.00 in0.0 mm 0.00 in0.0 mm 0.00 in0.0 mm
11:15 AM 26.8°F-2.9°C 24.1°F-4.4°C 90% Calm Calm 5.0 mph8.0 kmh 30.37 in1028.4 mb 0.00 in0.0 mm 0.00 in0.0 mm 0.00 in0.0 mm
11:20 AM 26.8°F-2.9°C 24.3°F-4.3°C 90% Calm Calm 5.0 mph8.0 kmh 30.37 in1028.4 mb 0.00 in0.0 mm 0.00 in0.0 mm 0.00 in0.0 mm
11:25 AM 27.0°F-2.8°C 24.4°F-4.2°C 90% Calm Calm 4.0 mph6.4 kmh 30.37 in1028.4 mb 0.00 in0.0 mm 0.00 in0.0 mm 0.00 in0.0 mm
11:30 AM 27.0°F-2.8°C 24.4°F-4.2°C 90% Calm Calm 5.0 mph8.0 kmh 30.37 in1028.4 mb 0.00 in0.0 mm 0.00 in0.0 mm 0.00 in0.0 mm
11:35 AM 27.0°F-2.8°C 24.3°F-4.3°C 89% 1.0 mph WSW1.6 kmh WSW 5.0 mph8.0 kmh 30.36 in1028.1 mb 0.00 in0.0 mm 0.00 in0.0 mm 0.00 in0.0 mm
11:40 AM 27.0°F-2.8°C 24.3°F-4.3°C 89% 1.0 mph WSW1.6 kmh WSW 4.0 mph6.4 kmh 30.36 in1028.1 mb 0.00 in0.0 mm 0.00 in0.0 mm 0.00 in0.0 mm
11:45 AM 27.0°F-2.8°C 24.3°F-4.3°C 89% 1.0 mph WSW1.6 kmh WSW 6.0 mph9.7 kmh 30.36 in1028.1 mb 0.00 in0.0 mm 0.00 in0.0 mm 0.00 in0.0 mm
11:50 AM 27.1°F-2.7°C 24.3°F-4.3°C 89% 1.0 mph WSW1.6 kmh WSW 6.0 mph9.7 kmh 30.36 in1028.1 mb 0.00 in0.0 mm 0.00 in0.0 mm 0.00 in0.0 mm
11:55 AM 27.0°F-2.8°C 24.3°F-4.3°C 89% 1.0 mph WSW1.6 kmh WSW 5.0 mph8.0 kmh 30.35 in1027.8 mb 0.00 in0.0 mm 0.00 in0.0 mm 0.00 in0.0 mm
12:00 PM 27.1°F-2.7°C 24.3°F-4.3°C 89% 2.0 mph WSW3.2 kmh WSW 6.0 mph9.7 kmh 30.35 in1027.8 mb 0.00 in0.0 mm 0.00 in0.0 mm 0.00 in0.0 mm
12:05 PM 27.1°F-2.7°C 24.1°F-4.4°C 88% 1.0 mph WSW1.6 kmh WSW 6.0 mph9.7 kmh 30.35 in1027.8 mb 0.00 in0.0 mm 0.00 in0.0 mm 0.00 in0.0 mm
12:10 PM 27.1°F-2.7°C 24.1°F-4.4°C 88% 1.0 mph WSW1.6 kmh WSW 5.0 mph8.0 kmh 30.35 in1027.8 mb 0.00 in0.0 mm 0.00 in0.0 mm 0.00 in0.0 mm
12:15 PM 27.1°F-2.7°C 24.1°F-4.4°C 88% 2.0 mph SW3.2 kmh SW 7.0 mph11.3 kmh 30.35 in1027.8 mb 0.00 in0.0 mm 0.00 in0.0 mm 0.00 in0.0 mm
12:20 PM 27.1°F-2.7°C 24.1°F-4.4°C 88% 2.0 mph SW3.2 kmh SW 7.0 mph11.3 kmh 30.34 in1027.4 mb 0.00 in0.0 mm 0.00 in0.0 mm 0.00 in0.0 mm
12:25 PM 27.3°F-2.6°C 24.3°F-4.3°C 88% 1.0 mph WSW1.6 kmh WSW 5.0 mph8.0 kmh 30.34 in1027.4 mb 0.00 in0.0 mm 0.00 in0.0 mm 0.00 in0.0 mm
12:30 PM 27.3°F-2.6°C 24.3°F-4.3°C 88% 1.0 mph WSW1.6 kmh WSW 8.0 mph12.9 kmh 30.34 in1027.4 mb 0.00 in0.0 mm 0.00 in0.0 mm 0.00 in0.0 mm
12:35 PM 27.3°F-2.6°C 24.3°F-4.3°C 88% 1.0 mph WSW1.6 kmh WSW 8.0 mph12.9 kmh 30.34 in1027.4 mb 0.00 in0.0 mm 0.00 in0.0 mm 0.00 in0.0 mm
12:40 PM 27.3°F-2.6°C 24.3°F-4.3°C 88% 1.0 mph WSW1.6 kmh WSW 5.0 mph8.0 kmh 30.34 in1027.4 mb 0.00 in0.0 mm 0.00 in0.0 mm 0.00 in0.0 mm
12:45 PM 27.3°F-2.6°C 24.3°F-4.3°C 88% 1.0 mph WSW1.6 kmh WSW 5.0 mph8.0 kmh 30.33 in1027.1 mb 0.00 in0.0 mm 0.00 in0.0 mm 0.00 in0.0 mm
12:50 PM 27.5°F-2.5°C 24.4°F-4.2°C 88% 1.0 mph WSW1.6 kmh WSW 5.0 mph8.0 kmh 30.33 in1027.1 mb 0.00 in0.0 mm 0.00 in0.0 mm 0.00 in0.0 mm
12:55 PM 27.5°F-2.5°C 24.4°F-4.2°C 88% 1.0 mph WSW1.6 kmh WSW 6.0 mph9.7 kmh 30.33 in1027.1 mb 0.00 in0.0 mm 0.00 in0.0 mm 0.00 in0.0 mm
01:00 PM 27.5°F-2.5°C 24.4°F-4.2°C 88% 1.0 mph SW1.6 kmh SW 6.0 mph9.7 kmh 30.33 in1027.1 mb 0.00 in0.0 mm 0.00 in0.0 mm 0.00 in0.0 mm
01:05 PM 27.5°F-2.5°C 24.1°F-4.4°C 87% 2.0 mph SW3.2 kmh SW 7.0 mph11.3 kmh 30.32 in1026.8 mb 0.00 in0.0 mm 0.00 in0.0 mm 0.00 in0.0 mm
01:10 PM 27.7°F-2.4°C 24.3°F-4.3°C 87% 3.0 mph WSW4.8 kmh WSW 7.0 mph11.3 kmh 30.32 in1026.8 mb 0.00 in0.0 mm 0.00 in0.0 mm 0.00 in0.0 mm
01:15 PM 27.7°F-2.4°C 24.3°F-4.3°C 87% 2.0 mph WSW3.2 kmh WSW 7.0 mph11.3 kmh 30.32 in1026.8 mb 0.00 in0.0 mm 0.00 in0.0 mm 0.00 in0.0 mm
01:20 PM 27.5°F-2.5°C 24.4°F-4.2°C 88% 2.0 mph WSW3.2 kmh WSW 7.0 mph11.3 kmh 30.32 in1026.8 mb 0.00 in0.0 mm 0.00 in0.0 mm 0.00 in0.0 mm
01:25 PM 27.3°F-2.6°C 24.3°F-4.3°C 88% 3.0 mph SW4.8 kmh SW 8.0 mph12.9 kmh 30.32 in1026.8 mb 0.00 in0.0 mm 0.00 in0.0 mm 0.00 in0.0 mm
01:30 PM 27.3°F-2.6°C 24.6°F-4.1°C 89% 3.0 mph WSW4.8 kmh WSW 8.0 mph12.9 kmh 30.32 in1026.8 mb 0.00 in0.0 mm 0.00 in0.0 mm 0.00 in0.0 mm
01:35 PM 27.3°F-2.6°C 24.6°F-4.1°C 89% 2.0 mph WSW3.2 kmh WSW 6.0 mph9.7 kmh 30.31 in1026.4 mb 0.00 in0.0 mm 0.00 in0.0 mm 0.00 in0.0 mm
01:40 PM 27.3°F-2.6°C 24.8°F-4.0°C 90% 1.0 mph WSW1.6 kmh WSW 5.0 mph8.0 kmh 30.31 in1026.4 mb 0.00 in0.0 mm 0.00 in0.0 mm 0.00 in0.0 mm
01:45 PM 27.3°F-2.6°C 24.8°F-4.0°C 90% 1.0 mph WSW1.6 kmh WSW 5.0 mph8.0 kmh 30.31 in1026.4 mb 0.00 in0.0 mm 0.00 in0.0 mm 0.00 in0.0 mm
01:50 PM 27.3°F-2.6°C 24.8°F-4.0°C 90% 1.0 mph WSW1.6 kmh WSW 5.0 mph8.0 kmh 30.31 in1026.4 mb 0.00 in0.0 mm 0.00 in0.0 mm 0.00 in0.0 mm
01:55 PM 27.1°F-2.7°C 24.6°F-4.1°C 90% 1.0 mph SW1.6 kmh SW 5.0 mph8.0 kmh 30.30 in1026.1 mb 0.00 in0.0 mm 0.00 in0.0 mm 0.00 in0.0 mm
02:00 PM 27.1°F-2.7°C 24.6°F-4.1°C 90% 1.0 mph SW1.6 kmh SW 4.0 mph6.4 kmh 30.30 in1026.1 mb 0.00 in0.0 mm 0.00 in0.0 mm 0.00 in0.0 mm
02:05 PM 27.1°F-2.7°C 25.0°F-3.9°C 91% 1.0 mph SW1.6 kmh SW 6.0 mph9.7 kmh 30.30 in1026.1 mb 0.00 in0.0 mm 0.00 in0.0 mm 0.00 in0.0 mm
02:10 PM 27.1°F-2.7°C 24.8°F-4.0°C 91% 2.0 mph SW3.2 kmh SW 9.0 mph14.5 kmh 30.30 in1026.1 mb 0.00 in0.0 mm 0.00 in0.0 mm 0.00 in0.0 mm
02:15 PM 27.1°F-2.7°C 24.8°F-4.0°C 91% 3.0 mph SW4.8 kmh SW 10.0 mph16.1 kmh 30.30 in1026.1 mb 0.00 in0.0 mm 0.00 in0.0 mm 0.00 in0.0 mm
02:20 PM 27.0°F-2.8°C 24.8°F-4.0°C 91% 3.0 mph SW4.8 kmh SW 10.0 mph16.1 kmh 30.29 in1025.7 mb 0.00 in0.0 mm 0.00 in0.0 mm 0.00 in0.0 mm
02:25 PM 27.0°F-2.8°C 24.8°F-4.0°C 91% 4.0 mph SW6.4 kmh SW 10.0 mph16.1 kmh 30.29 in1025.7 mb 0.00 in0.0 mm 0.00 in0.0 mm 0.00 in0.0 mm
02:30 PM 27.0°F-2.8°C 24.6°F-4.1°C 91% 4.0 mph SW6.4 kmh SW 10.0 mph16.1 kmh 30.29 in1025.7 mb 0.00 in0.0 mm 0.00 in0.0 mm 0.00 in0.0 mm
02:35 PM 27.0°F-2.8°C 24.6°F-4.1°C 91% 4.0 mph SW6.4 kmh SW 9.0 mph14.5 kmh 30.29 in1025.7 mb 0.00 in0.0 mm 0.00 in0.0 mm 0.00 in0.0 mm
02:40 PM 27.0°F-2.8°C 24.4°F-4.2°C 90% 4.0 mph SW6.4 kmh SW 11.0 mph17.7 kmh 30.29 in1025.7 mb 0.00 in0.0 mm 0.00 in0.0 mm 0.00 in0.0 mm
02:45 PM 26.8°F-2.9°C 24.3°F-4.3°C 90% 4.0 mph SW6.4 kmh SW 11.0 mph17.7 kmh 30.29 in1025.7 mb 0.00 in0.0 mm 0.00 in0.0 mm 0.00 in0.0 mm
02:50 PM 26.8°F-2.9°C 24.4°F-4.2°C 91% 4.0 mph SW6.4 kmh SW 9.0 mph14.5 kmh 30.28 in1025.4 mb 0.00 in0.0 mm 0.00 in0.0 mm 0.00 in0.0 mm
02:55 PM 26.8°F-2.9°C 24.4°F-4.2°C 91% 4.0 mph SW6.4 kmh SW 10.0 mph16.1 kmh 30.28 in1025.4 mb 0.00 in0.0 mm 0.00 in0.0 mm 0.00 in0.0 mm
03:00 PM 26.8°F-2.9°C 24.4°F-4.2°C 91% 4.0 mph SW6.4 kmh SW 10.0 mph16.1 kmh 30.28 in1025.4 mb 0.00 in0.0 mm 0.00 in0.0 mm 0.00 in0.0 mm
03:05 PM 26.8°F-2.9°C 24.4°F-4.2°C 91% 4.0 mph SW6.4 kmh SW 10.0 mph16.1 kmh 30.28 in1025.4 mb 0.00 in0.0 mm 0.00 in0.0 mm 0.00 in0.0 mm
03:10 PM 26.6°F-3.0°C 24.3°F-4.3°C 91% 4.0 mph SW6.4 kmh SW 9.0 mph14.5 kmh 30.28 in1025.4 mb 0.00 in0.0 mm 0.00 in0.0 mm 0.00 in0.0 mm
03:15 PM 26.4°F-3.1°C 24.3°F-4.3°C 91% 5.0 mph SW8.0 kmh SW 13.0 mph20.9 kmh 30.27 in1025.1 mb 0.00 in0.0 mm 0.00 in0.0 mm 0.00 in0.0 mm
03:20 PM 26.4°F-3.1°C 24.4°F-4.2°C 92% 5.0 mph SW8.0 kmh SW 13.0 mph20.9 kmh 30.27 in1025.1 mb 0.00 in0.0 mm 0.00 in0.0 mm 0.00 in0.0 mm
03:25 PM 26.4°F-3.1°C 24.4°F-4.2°C 92% 5.0 mph SW8.0 kmh SW 12.0 mph19.3 kmh 30.27 in1025.1 mb 0.00 in0.0 mm 0.00 in0.0 mm 0.00 in0.0 mm
03:30 PM 26.2°F-3.2°C 24.3°F-4.3°C 92% 4.0 mph SW6.4 kmh SW 11.0 mph17.7 kmh 30.27 in1025.1 mb 0.00 in0.0 mm 0.00 in0.0 mm 0.00 in0.0 mm
03:35 PM 26.2°F-3.2°C 24.3°F-4.3°C 92% 4.0 mph SW6.4 kmh SW 9.0 mph14.5 kmh 30.27 in1025.1 mb 0.00 in0.0 mm 0.00 in0.0 mm 0.00 in0.0 mm
03:40 PM 26.2°F-3.2°C 24.4°F-4.2°C 93% 3.0 mph SW4.8 kmh SW 8.0 mph12.9 kmh 30.27 in1025.1 mb 0.00 in0.0 mm 0.00 in0.0 mm 0.00 in0.0 mm
03:45 PM 26.2°F-3.2°C 24.4°F-4.2°C 93% 3.0 mph SW4.8 kmh SW 10.0 mph16.1 kmh 30.26 in1024.7 mb 0.00 in0.0 mm 0.00 in0.0 mm 0.00 in0.0 mm
03:50 PM 26.1°F-3.3°C 24.4°F-4.2°C 93% 4.0 mph SW6.4 kmh SW 10.0 mph16.1 kmh 30.26 in1024.7 mb 0.00 in0.0 mm 0.00 in0.0 mm 0.00 in0.0 mm
03:55 PM 26.1°F-3.3°C 24.4°F-4.2°C 93% 4.0 mph SW6.4 kmh SW 12.0 mph19.3 kmh 30.26 in1024.7 mb 0.00 in0.0 mm 0.00 in0.0 mm 0.00 in0.0 mm
04:00 PM 26.1°F-3.3°C 24.3°F-4.3°C 93% 4.0 mph SW6.4 kmh SW 12.0 mph19.3 kmh 30.26 in1024.7 mb 0.00 in0.0 mm 0.00 in0.0 mm 0.00 in0.0 mm
04:05 PM 25.9°F-3.4°C 24.1°F-4.4°C 93% 4.0 mph SW6.4 kmh SW 10.0 mph16.1 kmh 30.25 in1024.4 mb 0.00 in0.0 mm 0.00 in0.0 mm 0.00 in0.0 mm
04:10 PM 25.9°F-3.4°C 24.1°F-4.4°C 93% 4.0 mph SW6.4 kmh SW 10.0 mph16.1 kmh 30.25 in1024.4 mb 0.00 in0.0 mm 0.00 in0.0 mm 0.00 in0.0 mm
04:15 PM 25.9°F-3.4°C 24.1°F-4.4°C 93% 4.0 mph SW6.4 kmh SW 10.0 mph16.1 kmh 30.25 in1024.4 mb 0.00 in0.0 mm 0.00 in0.0 mm 0.00 in0.0 mm
04:20 PM 25.9°F-3.4°C 24.3°F-4.3°C 94% 4.0 mph SW6.4 kmh SW 10.0 mph16.1 kmh 30.25 in1024.4 mb 0.00 in0.0 mm 0.00 in0.0 mm 0.00 in0.0 mm
04:25 PM 25.9°F-3.4°C 24.3°F-4.3°C 94% 4.0 mph SW6.4 kmh SW 9.0 mph14.5 kmh 30.25 in1024.4 mb 0.00 in0.0 mm 0.00 in0.0 mm 0.00 in0.0 mm
04:30 PM 25.7°F-3.5°C 23.9°F-4.5°C 93% 4.0 mph SW6.4 kmh SW 11.0 mph17.7 kmh 30.25 in1024.4 mb 0.00 in0.0 mm 0.00 in0.0 mm 0.00 in0.0 mm
04:35 PM 25.7°F-3.5°C 23.9°F-4.5°C 93% 4.0 mph SW6.4 kmh SW 11.0 mph17.7 kmh 30.25 in1024.4 mb 0.00 in0.0 mm 0.00 in0.0 mm 0.00 in0.0 mm
04:40 PM 25.5°F-3.6°C 24.1°F-4.4°C 94% 3.0 mph SW4.8 kmh SW 7.0 mph11.3 kmh 30.24 in1024.0 mb 0.00 in0.0 mm 0.00 in0.0 mm 0.00 in0.0 mm
04:45 PM 25.5°F-3.6°C 24.1°F-4.4°C 94% 4.0 mph SW6.4 kmh SW 8.0 mph12.9 kmh 30.24 in1024.0 mb 0.00 in0.0 mm 0.00 in0.0 mm 0.00 in0.0 mm
04:50 PM 25.5°F-3.6°C 24.1°F-4.4°C 94% 3.0 mph SW4.8 kmh SW 8.0 mph12.9 kmh 30.24 in1024.0 mb 0.00 in0.0 mm 0.00 in0.0 mm 0.00 in0.0 mm
04:55 PM 25.5°F-3.6°C 24.1°F-4.4°C 94% 3.0 mph SW4.8 kmh SW 9.0 mph14.5 kmh 30.24 in1024.0 mb 0.00 in0.0 mm 0.00 in0.0 mm 0.00 in0.0 mm
05:00 PM 25.5°F-3.6°C 24.1°F-4.4°C 94% 4.0 mph SW6.4 kmh SW 10.0 mph16.1 kmh 30.24 in1024.0 mb 0.00 in0.0 mm 0.00 in0.0 mm 0.00 in0.0 mm
05:05 PM 25.5°F-3.6°C 24.1°F-4.4°C 94% 4.0 mph SW6.4 kmh SW 10.0 mph16.1 kmh 30.24 in1024.0 mb 0.00 in0.0 mm 0.00 in0.0 mm 0.00 in0.0 mm
05:10 PM 25.5°F-3.6°C 24.1°F-4.4°C 94% 4.0 mph SW6.4 kmh SW 10.0 mph16.1 kmh 30.24 in1024.0 mb 0.00 in0.0 mm 0.00 in0.0 mm 0.00 in0.0 mm
05:15 PM 25.5°F-3.6°C 24.1°F-4.4°C 94% 4.0 mph SW6.4 kmh SW 9.0 mph14.5 kmh 30.23 in1023.7 mb 0.00 in0.0 mm 0.00 in0.0 mm 0.00 in0.0 mm
05:20 PM 25.5°F-3.6°C 24.1°F-4.4°C 94% 3.0 mph SW4.8 kmh SW 8.0 mph12.9 kmh 30.23 in1023.7 mb 0.00 in0.0 mm 0.00 in0.0 mm 0.00 in0.0 mm
05:25 PM 25.5°F-3.6°C 24.1°F-4.4°C 94% 4.0 mph SW6.4 kmh SW 9.0 mph14.5 kmh 30.23 in1023.7 mb 0.00 in0.0 mm 0.00 in0.0 mm 0.00 in0.0 mm
05:30 PM 25.5°F-3.6°C 24.1°F-4.4°C 94% 4.0 mph SW6.4 kmh SW 9.0 mph14.5 kmh 30.23 in1023.7 mb 0.00 in0.0 mm 0.00 in0.0 mm 0.00 in0.0 mm
05:35 PM 25.5°F-3.6°C 24.1°F-4.4°C 94% 3.0 mph SW4.8 kmh SW 7.0 mph11.3 kmh 30.23 in1023.7 mb 0.00 in0.0 mm 0.00 in0.0 mm 0.00 in0.0 mm
05:40 PM 25.5°F-3.6°C 24.1°F-4.4°C 94% 3.0 mph SW4.8 kmh SW 8.0 mph12.9 kmh 30.22 in1023.4 mb 0.00 in0.0 mm 0.00 in0.0 mm 0.00 in0.0 mm
05:45 PM 25.5°F-3.6°C 24.1°F-4.4°C 94% 3.0 mph SW4.8 kmh SW 8.0 mph12.9 kmh 30.22 in1023.4 mb 0.00 in0.0 mm 0.00 in0.0 mm 0.00 in0.0 mm
05:50 PM 25.5°F-3.6°C 24.1°F-4.4°C 94% 3.0 mph SW4.8 kmh SW 7.0 mph11.3 kmh 30.22 in1023.4 mb 0.00 in0.0 mm 0.00 in0.0 mm 0.00 in0.0 mm
05:55 PM 25.5°F-3.6°C 24.1°F-4.4°C 94% 3.0 mph SW4.8 kmh SW 7.0 mph11.3 kmh 30.22 in1023.4 mb 0.00 in0.0 mm 0.00 in0.0 mm 0.00 in0.0 mm
06:00 PM 25.5°F-3.6°C 24.1°F-4.4°C 94% 3.0 mph SW4.8 kmh SW 6.0 mph9.7 kmh 30.22 in1023.4 mb 0.00 in0.0 mm 0.00 in0.0 mm 0.00 in0.0 mm
06:05 PM 25.7°F-3.5°C 24.3°F-4.3°C 94% 3.0 mph SW4.8 kmh SW 9.0 mph14.5 kmh 30.21 in1023.0 mb 0.00 in0.0 mm 0.00 in0.0 mm 0.00 in0.0 mm
06:10 PM 25.7°F-3.5°C 24.3°F-4.3°C 94% 3.0 mph SW4.8 kmh SW 9.0 mph14.5 kmh 30.21 in1023.0 mb 0.00 in0.0 mm 0.00 in0.0 mm 0.00 in0.0 mm
06:15 PM 25.7°F-3.5°C 24.3°F-4.3°C 94% 3.0 mph SW4.8 kmh SW 8.0 mph12.9 kmh 30.21 in1023.0 mb 0.00 in0.0 mm 0.00 in0.0 mm 0.00 in0.0 mm
06:20 PM 25.9°F-3.4°C 24.3°F-4.3°C 94% 2.0 mph SW3.2 kmh SW 8.0 mph12.9 kmh 30.21 in1023.0 mb 0.00 in0.0 mm 0.00 in0.0 mm 0.00 in0.0 mm
06:25 PM 25.9°F-3.4°C 24.3°F-4.3°C 94% 3.0 mph SW4.8 kmh SW 8.0 mph12.9 kmh 30.21 in1023.0 mb 0.00 in0.0 mm 0.00 in0.0 mm 0.00 in0.0 mm
06:30 PM 25.9°F-3.4°C 24.4°F-4.2°C 94% 4.0 mph SW6.4 kmh SW 8.0 mph12.9 kmh 30.20 in1022.7 mb 0.00 in0.0 mm 0.00 in0.0 mm 0.00 in0.0 mm
06:35 PM 25.9°F-3.4°C 24.4°F-4.2°C 94% 3.0 mph SW4.8 kmh SW 7.0 mph11.3 kmh 30.20 in1022.7 mb 0.00 in0.0 mm 0.00 in0.0 mm 0.00 in0.0 mm
06:40 PM 25.9°F-3.4°C 24.4°F-4.2°C 94% 3.0 mph SW4.8 kmh SW 6.0 mph9.7 kmh 30.20 in1022.7 mb 0.00 in0.0 mm 0.00 in0.0 mm 0.00 in0.0 mm
06:45 PM 26.1°F-3.3°C 24.4°F-4.2°C 94% 2.0 mph SW3.2 kmh SW 6.0 mph9.7 kmh 30.20 in1022.7 mb 0.00 in0.0 mm 0.00 in0.0 mm 0.00 in0.0 mm
06:50 PM 26.1°F-3.3°C 24.4°F-4.2°C 94% 2.0 mph SW3.2 kmh SW 7.0 mph11.3 kmh 30.20 in1022.7 mb 0.00 in0.0 mm 0.00 in0.0 mm 0.00 in0.0 mm
06:55 PM 26.1°F-3.3°C 24.4°F-4.2°C 94% 2.0 mph SW3.2 kmh SW 7.0 mph11.3 kmh 30.19 in1022.4 mb 0.00 in0.0 mm 0.00 in0.0 mm 0.00 in0.0 mm
07:00 PM 26.1°F-3.3°C 24.6°F-4.1°C 94% 3.0 mph SW4.8 kmh SW 7.0 mph11.3 kmh 30.19 in1022.4 mb 0.00 in0.0 mm 0.00 in0.0 mm 0.00 in0.0 mm
07:05 PM 26.1°F-3.3°C 24.6°F-4.1°C 94% 2.0 mph SW3.2 kmh SW 7.0 mph11.3 kmh 30.19 in1022.4 mb 0.00 in0.0 mm 0.00 in0.0 mm 0.00 in0.0 mm
07:10 PM 26.1°F-3.3°C 24.6°F-4.1°C 94% 2.0 mph SW3.2 kmh SW 4.0 mph6.4 kmh 30.19 in1022.4 mb 0.00 in0.0 mm 0.00 in0.0 mm 0.00 in0.0 mm
07:15 PM 26.2°F-3.2°C 24.6°F-4.1°C 94% 2.0 mph SW3.2 kmh SW 6.0 mph9.7 kmh 30.19 in1022.4 mb 0.00 in0.0 mm 0.00 in0.0 mm 0.00 in0.0 mm
07:20 PM 26.2°F-3.2°C 24.8°F-4.0°C 94% 2.0 mph SW3.2 kmh SW 6.0 mph9.7 kmh 30.19 in1022.4 mb 0.00 in0.0 mm 0.00 in0.0 mm 0.00 in0.0 mm
07:25 PM 26.4°F-3.1°C 25.0°F-3.9°C 94% 3.0 mph SW4.8 kmh SW 8.0 mph12.9 kmh 30.19 in1022.4 mb 0.00 in0.0 mm 0.00 in0.0 mm 0.00 in0.0 mm
07:30 PM 26.4°F-3.1°C 25.0°F-3.9°C 94% 3.0 mph SW4.8 kmh SW 8.0 mph12.9 kmh 30.18 in1022.0 mb 0.00 in0.0 mm 0.00 in0.0 mm 0.00 in0.0 mm
07:35 PM 26.4°F-3.1°C 25.2°F-3.8°C 95% 4.0 mph SW6.4 kmh SW 8.0 mph12.9 kmh 30.18 in1022.0 mb 0.00 in0.0 mm 0.00 in0.0 mm 0.00 in0.0 mm
07:40 PM 26.4°F-3.1°C 25.3°F-3.7°C 95% 3.0 mph SW4.8 kmh SW 6.0 mph9.7 kmh 30.18 in1022.0 mb 0.00 in0.0 mm 0.00 in0.0 mm 0.00 in0.0 mm
07:45 PM 26.4°F-3.1°C 25.3°F-3.7°C 95% 2.0 mph SW3.2 kmh SW 9.0 mph14.5 kmh 30.18 in1022.0 mb 0.00 in0.0 mm 0.00 in0.0 mm 0.00 in0.0 mm
07:50 PM 26.6°F-3.0°C 25.3°F-3.7°C 95% 2.0 mph SW3.2 kmh SW 9.0 mph14.5 kmh 30.18 in1022.0 mb 0.00 in0.0 mm 0.00 in0.0 mm 0.00 in0.0 mm
07:55 PM 26.6°F-3.0°C 25.3°F-3.7°C 95% 2.0 mph SW3.2 kmh SW 7.0 mph11.3 kmh 30.18 in1022.0 mb 0.00 in0.0 mm 0.00 in0.0 mm 0.00 in0.0 mm
08:00 PM 26.8°F-2.9°C 25.5°F-3.6°C 95% 3.0 mph SW4.8 kmh SW 7.0 mph11.3 kmh 30.18 in1022.0 mb 0.00 in0.0 mm 0.00 in0.0 mm 0.00 in0.0 mm
08:05 PM 26.8°F-2.9°C 25.5°F-3.6°C 95% 2.0 mph SW3.2 kmh SW 6.0 mph9.7 kmh 30.18 in1022.0 mb 0.00 in0.0 mm 0.00 in0.0 mm 0.00 in0.0 mm
08:10 PM 26.8°F-2.9°C 25.5°F-3.6°C 95% 2.0 mph SW3.2 kmh SW 5.0 mph8.0 kmh 30.17 in1021.7 mb 0.00 in0.0 mm 0.00 in0.0 mm 0.00 in0.0 mm
08:15 PM 26.8°F-2.9°C 25.5°F-3.6°C 95% 2.0 mph SW3.2 kmh SW 5.0 mph8.0 kmh 30.18 in1022.0 mb 0.00 in0.0 mm 0.00 in0.0 mm 0.00 in0.0 mm
08:20 PM 27.0°F-2.8°C 25.7°F-3.5°C 95% 2.0 mph SW3.2 kmh SW 6.0 mph9.7 kmh 30.18 in1022.0 mb 0.00 in0.0 mm 0.00 in0.0 mm 0.00 in0.0 mm
08:25 PM 27.0°F-2.8°C 25.7°F-3.5°C 95% 2.0 mph SW3.2 kmh SW 6.0 mph9.7 kmh 30.17 in1021.7 mb 0.00 in0.0 mm 0.00 in0.0 mm 0.00 in0.0 mm
08:30 PM 27.0°F-2.8°C 25.7°F-3.5°C 95% 2.0 mph SW3.2 kmh SW 6.0 mph9.7 kmh 30.17 in1021.7 mb 0.00 in0.0 mm 0.00 in0.0 mm 0.00 in0.0 mm
08:35 PM 27.0°F-2.8°C 25.7°F-3.5°C 95% 1.0 mph SW1.6 kmh SW 4.0 mph6.4 kmh 30.17 in1021.7 mb 0.00 in0.0 mm 0.00 in0.0 mm 0.00 in0.0 mm
08:40 PM 27.0°F-2.8°C 25.7°F-3.5°C 95% 1.0 mph SW1.6 kmh SW 4.0 mph6.4 kmh 30.17 in1021.7 mb 0.00 in0.0 mm 0.00 in0.0 mm 0.00 in0.0 mm
08:45 PM 27.1°F-2.7°C 25.9°F-3.4°C 95% 2.0 mph SW3.2 kmh SW 8.0 mph12.9 kmh 30.17 in1021.7 mb 0.00 in0.0 mm 0.00 in0.0 mm 0.00 in0.0 mm
08:50 PM 27.1°F-2.7°C 25.9°F-3.4°C 95% 2.0 mph SW3.2 kmh SW 8.0 mph12.9 kmh 30.17 in1021.7 mb 0.00 in0.0 mm 0.00 in0.0 mm 0.00 in0.0 mm
08:55 PM 27.1°F-2.7°C 25.9°F-3.4°C 95% 1.0 mph SW1.6 kmh SW 4.0 mph6.4 kmh 30.16 in1021.3 mb 0.00 in0.0 mm 0.00 in0.0 mm 0.00 in0.0 mm
09:00 PM 27.1°F-2.7°C 25.9°F-3.4°C 95% 1.0 mph SW1.6 kmh SW 5.0 mph8.0 kmh 30.16 in1021.3 mb 0.00 in0.0 mm 0.00 in0.0 mm 0.00 in0.0 mm
09:05 PM 27.1°F-2.7°C 25.9°F-3.4°C 95% 2.0 mph SW3.2 kmh SW 7.0 mph11.3 kmh 30.16 in1021.3 mb 0.00 in0.0 mm 0.00 in0.0 mm 0.00 in0.0 mm
09:10 PM 27.1°F-2.7°C 25.9°F-3.4°C 95% 2.0 mph SW3.2 kmh SW 7.0 mph11.3 kmh 30.16 in1021.3 mb 0.00 in0.0 mm 0.00 in0.0 mm 0.00 in0.0 mm
09:15 PM 27.3°F-2.6°C 26.1°F-3.3°C 95% 2.0 mph SW3.2 kmh SW 6.0 mph9.7 kmh 30.16 in1021.3 mb 0.00 in0.0 mm 0.00 in0.0 mm 0.00 in0.0 mm
09:20 PM 27.3°F-2.6°C 26.1°F-3.3°C 95% 2.0 mph SW3.2 kmh SW 6.0 mph9.7 kmh 30.16 in1021.3 mb 0.00 in0.0 mm 0.00 in0.0 mm 0.00 in0.0 mm
09:25 PM 27.3°F-2.6°C 26.1°F-3.3°C 95% 2.0 mph SW3.2 kmh SW 6.0 mph9.7 kmh 30.15 in1021.0 mb 0.00 in0.0 mm 0.00 in0.0 mm 0.00 in0.0 mm
09:30 PM 27.3°F-2.6°C 26.2°F-3.2°C 95% 2.0 mph SW3.2 kmh SW 6.0 mph9.7 kmh 30.15 in1021.0 mb 0.00 in0.0 mm 0.00 in0.0 mm 0.00 in0.0 mm
09:35 PM 27.3°F-2.6°C 26.2°F-3.2°C 95% 2.0 mph SW3.2 kmh SW 6.0 mph9.7 kmh 30.15 in1021.0 mb 0.00 in0.0 mm 0.00 in0.0 mm 0.00 in0.0 mm
09:40 PM 27.3°F-2.6°C 26.2°F-3.2°C 95% 2.0 mph SW3.2 kmh SW 6.0 mph9.7 kmh 30.15 in1021.0 mb 0.00 in0.0 mm 0.00 in0.0 mm 0.00 in0.0 mm
09:45 PM 27.3°F-2.6°C 26.2°F-3.2°C 95% 2.0 mph SW3.2 kmh SW 5.0 mph8.0 kmh 30.15 in1021.0 mb 0.00 in0.0 mm 0.00 in0.0 mm 0.00 in0.0 mm
09:50 PM 27.3°F-2.6°C 26.4°F-3.1°C 96% 2.0 mph SW3.2 kmh SW 7.0 mph11.3 kmh 30.15 in1021.0 mb 0.00 in0.0 mm 0.00 in0.0 mm 0.00 in0.0 mm
09:55 PM 27.5°F-2.5°C 26.4°F-3.1°C 96% 2.0 mph SW3.2 kmh SW 7.0 mph11.3 kmh 30.15 in1021.0 mb 0.00 in0.0 mm 0.00 in0.0 mm 0.00 in0.0 mm
10:00 PM 27.5°F-2.5°C 26.4°F-3.1°C 96% 2.0 mph SW3.2 kmh SW 6.0 mph9.7 kmh 30.15 in1021.0 mb 0.00 in0.0 mm 0.00 in0.0 mm 0.00 in0.0 mm
10:05 PM 27.5°F-2.5°C 26.4°F-3.1°C 96% 2.0 mph SW3.2 kmh SW 6.0 mph9.7 kmh 30.14 in1020.7 mb 0.00 in0.0 mm 0.00 in0.0 mm 0.00 in0.0 mm
10:10 PM 27.5°F-2.5°C 26.4°F-3.1°C 96% 2.0 mph SW3.2 kmh SW 6.0 mph9.7 kmh 30.14 in1020.7 mb 0.00 in0.0 mm 0.00 in0.0 mm 0.00 in0.0 mm
10:15 PM 27.5°F-2.5°C 26.4°F-3.1°C 96% 1.0 mph SW1.6 kmh SW 5.0 mph8.0 kmh 30.14 in1020.7 mb 0.00 in0.0 mm 0.00 in0.0 mm 0.00 in0.0 mm
10:20 PM 27.5°F-2.5°C 26.4°F-3.1°C 96% 1.0 mph SW1.6 kmh SW 5.0 mph8.0 kmh 30.14 in1020.7 mb 0.00 in0.0 mm 0.00 in0.0 mm 0.00 in0.0 mm
10:25 PM 27.7°F-2.4°C 26.6°F-3.0°C 96% 2.0 mph SW3.2 kmh SW 5.0 mph8.0 kmh 30.14 in1020.7 mb 0.00 in0.0 mm 0.00 in0.0 mm 0.00 in0.0 mm
10:30 PM 27.7°F-2.4°C 26.6°F-3.0°C 96% 2.0 mph SW3.2 kmh SW 4.0 mph6.4 kmh 30.14 in1020.7 mb 0.00 in0.0 mm 0.00 in0.0 mm 0.00 in0.0 mm
10:35 PM 27.7°F-2.4°C 26.8°F-2.9°C 96% 2.0 mph SW3.2 kmh SW 4.0 mph6.4 kmh 30.13 in1020.3 mb 0.00 in0.0 mm 0.00 in0.0 mm 0.00 in0.0 mm
10:40 PM 27.7°F-2.4°C 26.8°F-2.9°C 96% 2.0 mph SW3.2 kmh SW 4.0 mph6.4 kmh 30.13 in1020.3 mb 0.00 in0.0 mm 0.00 in0.0 mm 0.00 in0.0 mm
10:45 PM 27.9°F-2.3°C 26.8°F-2.9°C 96% 2.0 mph SW3.2 kmh SW 5.0 mph8.0 kmh 30.13 in1020.3 mb 0.00 in0.0 mm 0.00 in0.0 mm 0.00 in0.0 mm
10:50 PM 27.9°F-2.3°C 26.8°F-2.9°C 96% 2.0 mph SW3.2 kmh SW 5.0 mph8.0 kmh 30.13 in1020.3 mb 0.00 in0.0 mm 0.00 in0.0 mm 0.00 in0.0 mm
10:55 PM 27.9°F-2.3°C 26.8°F-2.9°C 96% 1.0 mph SW1.6 kmh SW 5.0 mph8.0 kmh 30.13 in1020.3 mb 0.00 in0.0 mm 0.00 in0.0 mm 0.00 in0.0 mm
11:00 PM 27.9°F-2.3°C 27.0°F-2.8°C 96% 2.0 mph SW3.2 kmh SW 4.0 mph6.4 kmh 30.12 in1020.0 mb 0.00 in0.0 mm 0.00 in0.0 mm 0.00 in0.0 mm
11:05 PM 27.9°F-2.3°C 27.0°F-2.8°C 96% 1.0 mph SW1.6 kmh SW 4.0 mph6.4 kmh 30.12 in1020.0 mb 0.00 in0.0 mm 0.00 in0.0 mm 0.00 in0.0 mm
11:10 PM 28.0°F-2.2°C 27.0°F-2.8°C 96% 1.0 mph SW1.6 kmh SW 3.0 mph4.8 kmh 30.12 in1020.0 mb 0.00 in0.0 mm 0.00 in0.0 mm 0.00 in0.0 mm
11:15 PM 28.0°F-2.2°C 27.0°F-2.8°C 96% Calm Calm 3.0 mph4.8 kmh 30.12 in1020.0 mb 0.00 in0.0 mm 0.00 in0.0 mm 0.00 in0.0 mm
11:20 PM 28.0°F-2.2°C 27.1°F-2.7°C 96% 1.0 mph SW1.6 kmh SW 6.0 mph9.7 kmh 30.12 in1020.0 mb 0.00 in0.0 mm 0.00 in0.0 mm 0.00 in0.0 mm
11:25 PM 28.0°F-2.2°C 27.1°F-2.7°C 96% 1.0 mph SW1.6 kmh SW 6.0 mph9.7 kmh 30.12 in1020.0 mb 0.00 in0.0 mm 0.00 in0.0 mm 0.00 in0.0 mm
11:30 PM 28.2°F-2.1°C 27.1°F-2.7°C 96% 1.0 mph SW1.6 kmh SW 3.0 mph4.8 kmh 30.11 in1019.6 mb 0.00 in0.0 mm 0.00 in0.0 mm 0.00 in0.0 mm
11:35 PM 28.2°F-2.1°C 27.1°F-2.7°C 96% Calm Calm 3.0 mph4.8 kmh 30.11 in1019.6 mb 0.00 in0.0 mm 0.00 in0.0 mm 0.00 in0.0 mm
11:40 PM 28.2°F-2.1°C 27.3°F-2.6°C 96% 1.0 mph SW1.6 kmh SW 4.0 mph6.4 kmh 30.11 in1019.6 mb 0.00 in0.0 mm 0.00 in0.0 mm 0.00 in0.0 mm
11:45 PM 28.2°F-2.1°C 27.3°F-2.6°C 96% 1.0 mph SW1.6 kmh SW 4.0 mph6.4 kmh 30.11 in1019.6 mb 0.00 in0.0 mm 0.00 in0.0 mm 0.00 in0.0 mm
11:50 PM 28.4°F-2.0°C 27.3°F-2.6°C 96% 1.0 mph SW1.6 kmh SW 5.0 mph8.0 kmh 30.11 in1019.6 mb 0.00 in0.0 mm 0.00 in0.0 mm 0.00 in0.0 mm
11:55 PM 28.4°F-2.0°C 27.3°F-2.6°C 96% 1.0 mph SW1.6 kmh SW 5.0 mph8.0 kmh 30.11 in1019.6 mb 0.00 in0.0 mm 0.00 in0.0 mm 0.00 in0.0 mm